createdAt,value
2023-01-03T00:02:08.795Z,0.90
2023-01-03T00:04:36.830Z,0.82
2023-01-03T00:07:03.423Z,1.20
2023-01-03T00:09:33.513Z,0.98
2023-01-03T00:12:18.745Z,1.02
2023-01-03T00:14:48.533Z,0.90
2023-01-03T00:17:16.937Z,0.90
2023-01-03T00:19:44.147Z,0.82
2023-01-03T00:22:12.908Z,1.00
2023-01-03T00:24:41.175Z,1.00
2023-01-03T00:27:08.493Z,0.75
2023-01-03T00:29:36.519Z,1.00
2023-01-03T00:32:04.217Z,1.33
2023-01-03T00:34:34.595Z,1.00
2023-01-03T00:37:01.667Z,1.10
2023-01-03T00:39:31.063Z,1.02
2023-01-03T00:41:59.384Z,1.27
2023-01-03T00:44:26.089Z,1.00
2023-01-03T00:46:59.009Z,1.13
2023-01-03T00:49:26.123Z,0.95
2023-01-03T00:51:56.087Z,1.00
2023-01-03T00:54:25.045Z,1.10
2023-01-03T00:56:53.969Z,0.90
2023-01-03T00:59:21.347Z,1.08
2023-01-03T01:01:50.669Z,1.05
2023-01-03T01:04:19.392Z,0.90
2023-01-03T01:06:54.841Z,0.82
2023-01-03T01:09:37.322Z,0.75
2023-01-03T01:12:06.188Z,1.02
2023-01-03T01:14:33.097Z,0.60
2023-01-03T01:17:06.612Z,0.93
2023-01-03T01:19:42.370Z,0.90
2023-01-03T01:22:10.254Z,0.98
2023-01-03T01:24:37.453Z,0.77
2023-01-03T01:27:04.653Z,0.75
2023-01-03T01:29:34.627Z,0.93
2023-01-03T01:32:04.393Z,0.95
2023-01-03T01:34:31.733Z,1.00
2023-01-03T01:37:01.984Z,1.08
2023-01-03T01:39:31.375Z,1.00
2023-01-03T01:42:30.550Z,1.10
2023-01-03T01:44:59.181Z,0.77
2023-01-03T01:47:40.307Z,1.00
2023-01-03T01:50:42.013Z,0.95
2023-01-03T01:53:26.088Z,1.00
2023-01-03T01:55:57.942Z,0.80
2023-01-03T01:58:33.565Z,0.97
2023-01-03T02:01:00.390Z,0.80
2023-01-03T02:03:27.158Z,0.80
2023-01-03T02:06:19.112Z,1.10
2023-01-03T02:08:45.767Z,0.95
2023-01-03T02:11:35.775Z,1.00
2023-01-03T02:14:27.017Z,0.80
2023-01-03T02:16:55.798Z,1.10
2023-01-03T02:19:57.221Z,0.77
2023-01-03T02:23:00.210Z,1.10
2023-01-03T02:25:54.732Z,0.95
2023-01-03T02:28:40.802Z,0.82
2023-01-03T02:31:27.095Z,1.00
2023-01-03T02:34:31.463Z,1.08
2023-01-03T02:37:29.771Z,0.93
2023-01-03T02:40:17.195Z,1.45
2023-01-03T02:42:57.199Z,1.20
2023-01-03T02:46:03.200Z,2.45
2023-01-03T02:48:35.268Z,2.03
2023-01-03T02:51:09.901Z,2.97
2023-01-03T02:53:43.818Z,3.15
2023-01-03T02:56:41.505Z,2.13
2023-01-03T02:59:16.651Z,1.38
2023-01-03T03:01:50.261Z,1.30
2023-01-03T03:04:21.772Z,1.35
2023-01-03T03:07:06.716Z,1.17
2023-01-03T03:09:54.590Z,1.17
2023-01-03T03:12:41.276Z,1.33
2023-01-03T03:15:14.529Z,0.98
2023-01-03T03:17:48.279Z,1.20
2023-01-03T03:20:35.202Z,0.90
2023-01-03T03:23:29.453Z,1.20
2023-01-03T03:26:17.730Z,1.17
2023-01-03T03:28:53.428Z,1.25
2023-01-03T03:31:30.540Z,1.25
2023-01-03T03:34:00.159Z,1.20
2023-01-03T03:36:50.645Z,1.15
2023-01-03T03:39:40.409Z,1.48
2023-01-03T03:42:37.742Z,1.58
2023-01-03T03:45:20.732Z,1.60
2023-01-03T03:50:27.272Z,1.10
2023-01-03T03:52:59.906Z,1.00
2023-01-03T03:58:22.538Z,1.20
2023-01-03T04:01:02.164Z,1.23
2023-01-03T04:03:30.813Z,1.40
2023-01-03T04:06:03.832Z,1.40
2023-01-03T04:08:33.230Z,1.52
2023-01-03T04:11:06.161Z,1.95
2023-01-03T04:13:34.796Z,1.15
2023-01-03T04:16:01.909Z,1.17
2023-01-03T04:18:29.704Z,1.13
2023-01-03T04:20:57.824Z,1.45
2023-01-03T04:23:25.492Z,1.63
2023-01-03T04:26:43.717Z,1.23
2023-01-03T04:29:10.446Z,1.20
2023-01-03T04:31:39.317Z,1.13
2023-01-03T04:34:12.244Z,1.30
2023-01-03T04:36:39.524Z,1.23
2023-01-03T04:39:09.660Z,1.33
2023-01-03T04:41:37.539Z,1.35
2023-01-03T04:44:04.495Z,1.27
2023-01-03T04:46:37.505Z,1.23
2023-01-03T04:49:07.383Z,1.00
2023-01-03T04:51:40.227Z,0.70
2023-01-03T04:54:11.759Z,0.80
2023-01-03T04:56:38.926Z,0.80
2023-01-03T04:59:05.791Z,1.10
2023-01-03T05:01:33.548Z,1.02
2023-01-03T05:04:04.249Z,1.05
2023-01-03T05:06:30.948Z,0.85
2023-01-03T05:08:59.995Z,2.10
2023-01-03T05:11:26.642Z,2.30
2023-01-03T05:13:53.773Z,1.00
2023-01-03T05:16:27.914Z,1.40
2023-01-03T05:18:56.051Z,1.52
2023-01-03T05:21:42.153Z,1.60
2023-01-03T05:27:15.673Z,1.60
2023-01-03T05:29:51.741Z,1.17
2023-01-03T05:32:18.616Z,1.23
2023-01-03T05:34:45.296Z,1.50
2023-01-03T05:37:18.104Z,1.67
2023-01-03T05:39:47.924Z,1.55
2023-01-03T05:42:15.826Z,1.70
2023-01-03T05:44:42.616Z,1.85
2023-01-03T05:47:10.223Z,1.60
2023-01-03T05:49:41.068Z,2.03
2023-01-03T05:52:08.633Z,1.90
2023-01-03T05:54:35.206Z,1.85
2023-01-03T05:57:02.890Z,1.88
2023-01-03T05:59:31.041Z,1.80
2023-01-03T06:01:59.830Z,1.77
2023-01-03T06:04:32.068Z,2.40
2023-01-03T06:07:01.899Z,2.58
2023-01-03T06:09:28.682Z,2.78
2023-01-03T06:12:01.255Z,3.03
2023-01-03T06:14:30.338Z,3.33
2023-01-03T06:17:15.970Z,3.42
2023-01-03T06:19:42.612Z,3.78
2023-01-03T06:22:11.639Z,3.97
2023-01-03T06:24:39.367Z,3.60
2023-01-03T06:27:05.931Z,3.25
2023-01-03T06:29:32.688Z,3.20
2023-01-03T06:32:09.620Z,2.72
2023-01-03T06:34:37.863Z,3.05
2023-01-03T06:37:07.912Z,2.72
2023-01-03T06:39:35.042Z,2.13
2023-01-03T06:42:22.864Z,2.00
2023-01-03T06:45:09.664Z,1.80
2023-01-03T06:48:03.219Z,2.17
2023-01-03T06:50:51.207Z,2.00
2023-01-03T06:53:22.309Z,2.78
2023-01-03T06:55:54.562Z,2.70
2023-01-03T06:58:24.689Z,2.20
2023-01-03T07:00:52.544Z,2.58
2023-01-03T07:03:19.251Z,3.15
2023-01-03T07:05:45.975Z,3.92
2023-01-03T07:08:15.113Z,4.30
2023-01-03T07:10:41.842Z,4.40
2023-01-03T07:13:32.021Z,5.00
2023-01-03T07:16:00.688Z,4.45
2023-01-03T07:18:30.967Z,6.25
2023-01-03T07:21:08.281Z,5.93
2023-01-03T07:23:38.907Z,5.10
2023-01-03T07:26:06.003Z,4.78
2023-01-03T07:28:37.051Z,4.38
2023-01-03T07:31:06.926Z,4.07
2023-01-03T07:33:34.408Z,4.07
2023-01-03T07:36:11.881Z,3.20
2023-01-03T07:38:41.218Z,3.45
2023-01-03T07:41:55.853Z,4.03
2023-01-03T07:44:26.806Z,4.85
2023-01-03T07:46:56.561Z,4.30
2023-01-03T07:49:24.620Z,3.78
2023-01-03T07:51:54.729Z,3.75
2023-01-03T07:54:21.550Z,3.70
2023-01-03T07:56:49.242Z,3.85
2023-01-03T07:59:18.490Z,4.28
2023-01-03T08:01:49.807Z,6.00
2023-01-03T08:04:18.734Z,4.85
2023-01-03T08:06:47.452Z,4.60
2023-01-03T08:09:35.244Z,3.97
2023-01-03T08:12:27.325Z,4.40
2023-01-03T08:14:57.654Z,3.42
2023-01-03T08:17:24.270Z,3.17
2023-01-03T08:19:55.365Z,3.50
2023-01-03T08:22:26.704Z,3.33
2023-01-03T08:25:00.241Z,3.10
2023-01-03T08:27:31.399Z,3.60
2023-01-03T08:29:58.143Z,3.47
2023-01-03T08:32:29.862Z,3.00
2023-01-03T08:34:57.061Z,3.88
2023-01-03T08:37:23.754Z,3.72
2023-01-03T08:39:57.229Z,6.90
2023-01-03T08:42:33.480Z,7.88
2023-01-03T08:45:07.454Z,14.15
2023-01-03T08:47:37.931Z,13.32
2023-01-03T08:50:07.364Z,11.00
2023-01-03T08:52:37.793Z,13.75
2023-01-03T08:55:07.925Z,13.68
2023-01-03T08:57:34.594Z,10.98
2023-01-03T09:00:04.961Z,8.43
2023-01-03T09:02:37.452Z,7.15
2023-01-03T09:05:05.289Z,4.88
2023-01-03T09:07:58.742Z,3.65
2023-01-03T09:10:37.794Z,2.90
2023-01-03T09:13:12.103Z,2.53
2023-01-03T09:15:41.353Z,2.55
2023-01-03T09:18:12.155Z,2.38
2023-01-03T09:20:38.845Z,2.28
2023-01-03T09:23:05.548Z,2.67
2023-01-03T09:25:37.013Z,3.10
2023-01-03T09:28:04.429Z,2.78
2023-01-03T09:30:33.092Z,4.07
2023-01-03T09:33:01.837Z,4.13
2023-01-03T09:35:31.115Z,5.13
2023-01-03T09:37:59.312Z,5.43
2023-01-03T09:40:32.059Z,5.32
2023-01-03T09:45:44.523Z,5.80
2023-01-03T09:48:17.603Z,5.65
2023-01-03T09:51:17.201Z,6.78
2023-01-03T09:54:07.387Z,4.50
2023-01-03T09:56:56.724Z,6.60
2023-01-03T09:59:43.514Z,8.35
2023-01-03T10:03:16.334Z,6.03
2023-01-03T10:05:59.478Z,6.45
2023-01-03T10:08:47.840Z,5.18
2023-01-03T10:11:25.357Z,5.35
2023-01-03T10:14:38.504Z,6.35
2023-01-03T10:17:33.349Z,4.07
2023-01-03T10:20:28.116Z,3.25
2023-01-03T10:23:03.376Z,2.45
2023-01-03T10:25:32.280Z,2.45
2023-01-03T10:28:19.805Z,2.42
2023-01-03T10:31:07.811Z,2.30
2023-01-03T10:33:47.570Z,2.30
2023-01-03T10:36:16.179Z,2.83
2023-01-03T10:38:51.558Z,2.60
2023-01-03T10:41:30.580Z,2.10
2023-01-03T10:44:03.962Z,2.17
2023-01-03T10:46:31.201Z,2.13
2023-01-03T10:49:33.243Z,2.55
2023-01-03T10:52:00.755Z,1.75
2023-01-03T10:54:45.889Z,1.33
2023-01-03T10:57:34.321Z,1.30
2023-01-03T11:00:29.541Z,0.88
2023-01-03T11:03:22.979Z,0.70
2023-01-03T11:05:55.888Z,0.63
2023-01-03T11:08:45.585Z,0.77
2023-01-03T11:11:31.465Z,1.02
2023-01-03T11:14:23.942Z,0.60
2023-01-03T11:17:15.506Z,0.80
2023-01-03T11:19:46.462Z,0.80
2023-01-03T11:22:40.368Z,0.73
2023-01-03T11:25:34.329Z,0.70
2023-01-03T11:28:29.446Z,0.75
2023-01-03T11:35:26.257Z,0.80
2023-01-03T11:40:45.009Z,0.82
2023-01-03T11:43:51.419Z,0.90
2023-01-03T11:46:21.053Z,1.02
2023-01-03T11:49:28.404Z,0.80
2023-01-03T11:52:12.882Z,1.40
2023-01-03T11:55:19.118Z,1.05
2023-01-03T11:58:05.185Z,1.50
2023-01-03T12:00:57.970Z,1.00
2023-01-03T12:03:53.549Z,1.95
2023-01-03T12:07:37.073Z,1.30
2023-01-03T12:10:15.822Z,1.63
2023-01-03T12:13:29.152Z,1.08
2023-01-03T12:16:12.594Z,0.90
2023-01-03T12:19:15.822Z,0.75
2023-01-03T12:24:26.247Z,0.80
2023-01-03T12:27:17.023Z,1.20
2023-01-03T12:29:58.247Z,0.88
2023-01-03T12:32:55.257Z,0.70
2023-01-03T12:35:42.775Z,0.90
2023-01-03T12:38:13.443Z,1.10
2023-01-03T12:40:58.477Z,1.10
2023-01-03T12:44:07.026Z,1.05
2023-01-03T12:46:42.988Z,0.93
2023-01-03T12:49:17.176Z,1.05
2023-01-03T12:52:02.664Z,1.00
2023-01-03T12:54:41.685Z,1.20
2023-01-03T12:57:55.623Z,0.90
2023-01-03T13:01:15.807Z,1.40
2023-01-03T13:03:52.036Z,1.00
2023-01-03T13:07:16.543Z,1.10
2023-01-03T13:10:03.986Z,0.90
2023-01-03T13:12:38.056Z,1.02
2023-01-03T13:15:36.609Z,1.92
2023-01-03T13:18:31.694Z,0.75
2023-01-03T13:21:52.511Z,1.20
2023-01-03T13:24:50.661Z,1.33
2023-01-03T13:27:22.003Z,1.02
2023-01-03T13:29:57.429Z,0.80
2023-01-03T13:32:37.933Z,1.23
2023-01-03T13:35:31.570Z,1.00
2023-01-03T13:38:41.195Z,0.98
2023-01-03T13:41:38.098Z,0.90
2023-01-03T13:44:19.695Z,0.70
2023-01-03T13:49:53.692Z,0.77
2023-01-03T13:52:56.101Z,0.60
2023-01-03T13:55:54.248Z,0.60
2023-01-03T13:58:27.986Z,0.60
2023-01-03T14:01:05.194Z,0.52
2023-01-03T14:04:00.970Z,0.45
2023-01-03T14:06:46.685Z,0.50
2023-01-03T14:09:57.513Z,0.75
2023-01-03T14:13:12.448Z,0.60
2023-01-03T14:15:39.337Z,1.10
2023-01-03T14:18:27.805Z,1.77
2023-01-03T14:20:58.737Z,1.85
2023-01-03T14:23:59.081Z,1.67
2023-01-03T14:26:18.733Z,1.50
2023-01-03T14:28:49.373Z,1.30
2023-01-03T14:31:26.148Z,0.65
2023-01-03T14:33:57.004Z,1.10
2023-01-03T14:36:24.341Z,1.30
2023-01-03T14:38:58.906Z,1.92
2023-01-03T14:41:33.034Z,1.90
2023-01-03T14:44:13.683Z,0.80
2023-01-03T14:46:58.913Z,1.05
2023-01-03T14:49:44.273Z,2.50
2023-01-03T14:52:41.794Z,1.83
2023-01-03T14:55:18.197Z,1.77
2023-01-03T14:57:55.073Z,1.70
2023-01-03T15:00:32.554Z,1.88
2023-01-03T15:03:02.873Z,3.60
2023-01-03T15:05:39.960Z,1.63
2023-01-03T15:08:31.219Z,1.80
2023-01-03T15:11:03.591Z,2.10
2023-01-03T15:13:30.388Z,1.10
2023-01-03T15:16:00.061Z,1.00
2023-01-03T15:18:35.933Z,0.95
2023-01-03T15:21:06.462Z,0.80
2023-01-03T15:23:45.061Z,0.90
2023-01-03T15:26:40.045Z,1.13
2023-01-03T15:29:20.713Z,2.05
2023-01-03T15:31:53.375Z,2.05
2023-01-03T15:37:10.844Z,1.90
2023-01-03T15:39:53.641Z,2.08
2023-01-03T15:42:45.305Z,1.75
2023-01-03T15:45:44.992Z,1.73
2023-01-03T15:48:18.498Z,2.72
2023-01-03T15:50:55.101Z,2.55
2023-01-03T15:53:26.491Z,2.92
2023-01-03T15:56:04.273Z,2.38
2023-01-03T15:58:32.828Z,4.32
2023-01-03T16:01:09.477Z,6.03
2023-01-03T16:03:39.299Z,6.07
2023-01-03T16:06:26.344Z,9.45
2023-01-03T16:08:53.263Z,13.07
2023-01-03T16:11:33.637Z,16.88
2023-01-03T16:14:12.602Z,11.70
2023-01-03T16:16:45.994Z,8.02
2023-01-03T16:19:26.875Z,6.18
2023-01-03T16:24:55.511Z,8.23
2023-01-03T16:27:24.671Z,7.55
2023-01-03T16:30:18.359Z,8.63
2023-01-03T16:32:48.594Z,7.40
2023-01-03T16:38:13.657Z,6.78
2023-01-03T16:40:43.618Z,6.90
2023-01-03T16:43:15.905Z,6.38
2023-01-03T16:51:57.081Z,5.95
2023-01-03T16:54:32.484Z,12.60
2023-01-03T16:57:25.201Z,9.60
2023-01-03T16:59:56.951Z,5.38
2023-01-03T17:02:23.769Z,5.40
2023-01-03T17:05:20.829Z,6.22
2023-01-03T17:08:19.408Z,6.80
2023-01-03T17:10:56.916Z,7.00
2023-01-03T17:13:47.958Z,7.90
2023-01-03T17:16:18.015Z,7.60
2023-01-03T17:21:51.002Z,9.73
2023-01-03T17:24:26.563Z,9.45
2023-01-03T17:27:06.346Z,9.05
2023-01-03T17:29:37.104Z,9.50
2023-01-03T17:32:34.158Z,9.00
2023-01-03T17:35:36.060Z,8.00
2023-01-03T17:44:28.228Z,7.82
2023-01-03T17:50:18.382Z,6.00
2023-01-03T17:52:55.866Z,7.45
2023-01-03T17:55:31.162Z,7.05
2023-01-03T17:58:03.163Z,6.88
2023-01-03T18:00:48.226Z,6.88
2023-01-03T18:03:18.317Z,7.25
2023-01-03T18:05:49.227Z,7.85
2023-01-03T18:08:24.000Z,7.80
2023-01-03T18:13:50.993Z,6.63
2023-01-03T18:16:54.870Z,7.10
2023-01-03T18:19:23.576Z,6.55
2023-01-03T18:25:08.914Z,6.18
2023-01-03T18:27:39.990Z,8.23
2023-01-03T18:30:40.485Z,8.10
2023-01-03T18:33:35.209Z,9.10
2023-01-03T18:36:14.059Z,8.57
2023-01-03T18:38:46.576Z,7.85
2023-01-03T18:44:31.723Z,8.80
2023-01-03T18:47:22.196Z,7.68
2023-01-03T18:49:50.362Z,13.05
2023-01-03T18:52:34.393Z,11.75
2023-01-03T18:55:13.081Z,12.05
2023-01-03T18:57:39.841Z,13.93
2023-01-03T19:00:30.278Z,15.18
2023-01-03T19:03:14.784Z,12.60
2023-01-03T19:09:25.313Z,11.57
2023-01-03T19:11:56.048Z,11.02
2023-01-03T19:17:20.246Z,13.02
2023-01-03T19:19:58.304Z,12.23
2023-01-03T19:22:37.994Z,13.55
2023-01-03T19:25:20.546Z,11.00
2023-01-03T19:27:56.925Z,8.20
2023-01-03T19:30:41.097Z,8.85
2023-01-03T19:33:34.852Z,9.60
2023-01-03T19:36:31.903Z,8.15
2023-01-03T19:39:26.019Z,6.15
2023-01-03T19:45:44.062Z,3.40
2023-01-03T20:00:26.252Z,5.03
2023-01-03T20:03:13.891Z,5.93
2023-01-03T20:12:03.192Z,5.43
2023-01-03T20:14:30.265Z,5.97
2023-01-03T20:17:24.008Z,7.30
2023-01-03T20:19:50.899Z,8.30
2023-01-03T20:23:03.040Z,6.25
2023-01-03T20:25:43.809Z,4.32
2023-01-03T20:28:28.662Z,3.67
2023-01-03T20:31:02.211Z,4.57
2023-01-03T20:33:30.912Z,4.63
2023-01-03T20:36:12.581Z,5.57
2023-01-03T20:38:48.747Z,11.65
2023-01-03T20:41:35.241Z,14.98
2023-01-03T20:44:15.915Z,15.70
2023-01-03T20:46:46.381Z,10.15
2023-01-03T20:49:31.281Z,9.25
2023-01-03T20:52:17.616Z,7.60
2023-01-03T20:54:53.022Z,7.07
2023-01-03T20:57:23.795Z,6.70
2023-01-03T21:02:37.209Z,5.72
2023-01-03T21:05:04.208Z,5.35
2023-01-03T21:10:55.183Z,3.38
2023-01-03T21:13:27.269Z,3.58
2023-01-03T21:15:55.818Z,3.90
2023-01-03T21:18:25.683Z,3.20
2023-01-03T21:21:30.066Z,3.33
2023-01-03T21:24:07.401Z,3.10
2023-01-03T21:26:42.302Z,2.78
2023-01-03T21:31:56.561Z,3.38
2023-01-03T21:34:23.539Z,3.08
2023-01-03T21:37:04.823Z,4.00
2023-01-03T21:39:44.683Z,4.10
2023-01-03T21:42:35.742Z,4.10
2023-01-03T21:45:31.054Z,4.90
2023-01-03T21:48:12.875Z,4.55
2023-01-03T21:50:51.143Z,3.95
2023-01-03T21:53:25.352Z,4.05
2023-01-03T21:56:27.599Z,4.55
2023-01-03T21:59:03.218Z,5.60
2023-01-03T22:02:03.022Z,4.30
2023-01-03T22:04:39.590Z,4.88
2023-01-03T22:07:21.409Z,5.20
2023-01-03T22:10:18.202Z,4.97
2023-01-03T22:13:03.285Z,4.75
2023-01-03T22:15:48.596Z,4.85
2023-01-03T22:19:37.343Z,4.75
2023-01-03T22:22:14.224Z,3.53
2023-01-03T22:27:32.107Z,3.75
2023-01-03T22:29:59.224Z,4.10
2023-01-03T22:32:28.071Z,5.57
2023-01-03T22:34:56.392Z,6.90
2023-01-03T22:37:28.909Z,7.35
2023-01-03T22:40:01.825Z,4.13
2023-01-03T22:42:31.075Z,6.30
2023-01-03T22:45:00.603Z,6.47
2023-01-03T22:47:29.673Z,4.97
2023-01-03T22:50:09.948Z,5.35
2023-01-03T22:52:40.398Z,5.53
2023-01-03T22:55:31.886Z,5.47
2023-01-03T23:00:33.661Z,5.57
2023-01-03T23:03:11.187Z,5.85
2023-01-03T23:05:41.440Z,4.75
2023-01-03T23:08:10.610Z,4.28
2023-01-03T23:10:39.404Z,3.28
2023-01-03T23:13:09.072Z,3.63
2023-01-03T23:15:38.376Z,3.50
2023-01-03T23:18:06.340Z,3.30
2023-01-03T23:20:55.319Z,3.55
2023-01-03T23:23:43.230Z,7.07
2023-01-03T23:26:10.317Z,11.05
2023-01-03T23:28:36.953Z,11.57
2023-01-03T23:31:19.436Z,10.23
2023-01-03T23:33:46.794Z,6.75
2023-01-03T23:36:16.345Z,4.32
2023-01-03T23:38:43.853Z,4.85
2023-01-03T23:41:11.873Z,4.47
2023-01-03T23:43:46.401Z,3.95
2023-01-03T23:46:50.437Z,4.28
2023-01-03T23:49:18.253Z,4.95
2023-01-03T23:51:54.946Z,5.85
2023-01-03T23:54:26.950Z,5.72
2023-01-03T23:57:05.086Z,4.93
2023-01-03T23:59:42.777Z,3.75
